Time;durP1;ratioP1;P1;durP2;ratioP2;P2;SDS_P1;SDS_P2;PMS_P1;PMS_P2;Temp;Humidity;BMP_temperature;BMP_pressure;BME280_temperature;BME280_humidity;BME280_pressure;Samples;Min_cycle;Max_cycle;Signal;HPM_P1;HPM_P2
2022/03/13 00:02:27;;;;;;;;;;;7.50;56.20;;;;;;4980220;28;20401;-74
2022/03/13 00:04:56;;;;;;;;;;;7.50;56.30;;;;;;4981003;28;19930;-73
2022/03/13 00:07:25;;;;;;;;;;;7.50;56.20;;;;;;4983897;28;20649;-74
2022/03/13 00:09:52;;;;;;;;;;;7.50;56.30;;;;;;4983044;28;19929;-73
2022/03/13 00:12:24;;;;;;;;;;;7.40;56.50;;;;;;4982931;28;20457;-73
2022/03/13 00:14:51;;;;;;;;;;;7.40;57.20;;;;;;4982183;28;19930;-73
2022/03/13 00:17:18;;;;;;;;;;;7.40;56.70;;;;;;4982973;28;20283;-74
2022/03/13 00:19:47;;;;;;;;;;;7.30;56.70;;;;;;4980352;28;19934;-73
2022/03/13 00:22:14;;;;;;;;;;;7.30;56.70;;;;;;4982588;28;19941;-74
2022/03/13 00:24:40;;;;;;;;;;;7.30;56.80;;;;;;4980132;28;19936;-73
2022/03/13 00:27:07;;;;;;;;;;;7.30;57.00;;;;;;4981584;28;19937;-74
2022/03/13 00:29:34;;;;;;;;;;;7.20;57.00;;;;;;4984544;28;19930;-73
2022/03/13 00:32:00;;;;;;;;;;;7.20;57.10;;;;;;4981646;28;20429;-73
2022/03/13 00:34:27;;;;;;;;;;;7.20;57.00;;;;;;4982208;28;20425;-73
2022/03/13 00:36:55;;;;;;;;;;;7.10;57.10;;;;;;4983242;28;19930;-73
2022/03/13 00:39:21;;;;;;;;;;;7.10;57.30;;;;;;4983832;28;20387;-73
2022/03/13 00:41:48;;;;;;;;;;;7.10;57.20;;;;;;4983770;28;19929;-73
2022/03/13 00:44:15;;;;;;;;;;;7.10;57.30;;;;;;4984247;28;19925;-74
2022/03/13 00:46:41;;;;;;;;;;;7.10;57.30;;;;;;4982240;28;19939;-72
2022/03/13 00:49:08;;;;;;;;;;;7.00;57.40;;;;;;4982090;28;19933;-73
2022/03/13 00:51:35;;;;;;;;;;;7.00;57.50;;;;;;4979704;28;19957;-73
2022/03/13 00:54:03;;;;;;;;;;;7.00;57.70;;;;;;4981408;28;20488;-74
2022/03/13 00:56:30;;;;;;;;;;;6.90;57.70;;;;;;4980743;28;20394;-73
2022/03/13 00:58:56;;;;;;;;;;;6.90;57.80;;;;;;4982167;28;20404;-73
2022/03/13 01:01:23;;;;;;;;;;;6.90;57.70;;;;;;4982727;28;20469;-74
2022/03/13 01:03:51;;;;;;;;;;;6.80;57.70;;;;;;4981155;28;20314;-73
2022/03/13 01:06:18;;;;;;;;;;;6.80;57.90;;;;;;4980798;28;19937;-74
2022/03/13 01:08:46;;;;;;;;;;;6.80;57.90;;;;;;4981691;28;20291;-73
2022/03/13 01:11:15;;;;;;;;;;;6.80;58.10;;;;;;4981230;28;20064;-73
2022/03/13 01:13:41;;;;;;;;;;;6.70;57.90;;;;;;4984138;28;19929;-73
2022/03/13 01:16:12;;;;;;;;;;;6.70;58.00;;;;;;4982075;28;19930;-73
2022/03/13 01:18:40;;;;;;;;;;;6.70;58.00;;;;;;4981142;28;19930;-73
2022/03/13 01:21:07;;;;;;;;;;;6.70;58.00;;;;;;4981343;28;19930;-73
2022/03/13 01:23:34;;;;;;;;;;;6.60;58.10;;;;;;4983441;28;20528;-72
2022/03/13 01:26:34;;;;;;;;;;;6.60;58.10;;;;;;4982659;28;19936;-73
2022/03/13 01:29:03;;;;;;;;;;;6.60;58.10;;;;;;4982165;28;20012;-73
2022/03/13 01:31:31;;;;;;;;;;;6.50;58.20;;;;;;4983328;28;19948;-73
2022/03/13 01:33:58;;;;;;;;;;;6.50;58.20;;;;;;4980926;28;19960;-73
2022/03/13 01:36:25;;;;;;;;;;;6.50;58.30;;;;;;4982004;28;19930;-73
2022/03/13 01:38:53;;;;;;;;;;;6.50;58.40;;;;;;4983385;28;19926;-73
2022/03/13 01:41:19;;;;;;;;;;;6.50;58.50;;;;;;4984926;28;19934;-74
2022/03/13 01:43:46;;;;;;;;;;;6.50;58.60;;;;;;4981388;28;20596;-73
2022/03/13 01:46:14;;;;;;;;;;;6.40;58.50;;;;;;4982746;28;19937;-73
2022/03/13 01:48:52;;;;;;;;;;;6.50;58.60;;;;;;4981779;28;19946;-73
2022/03/13 01:51:19;;;;;;;;;;;6.40;58.90;;;;;;4982154;28;19941;-73
2022/03/13 01:53:46;;;;;;;;;;;6.30;58.80;;;;;;4982913;28;19940;-73
2022/03/13 01:56:13;;;;;;;;;;;6.30;58.90;;;;;;4981772;28;19934;-73
2022/03/13 01:58:39;;;;;;;;;;;6.30;58.70;;;;;;4983103;28;19937;-73
2022/03/13 02:01:06;;;;;;;;;;;6.30;58.70;;;;;;4982295;28;19937;-73
2022/03/13 02:03:34;;;;;;;;;;;6.30;58.80;;;;;;4981797;28;19926;-72
2022/03/13 02:06:00;;;;;;;;;;;6.20;58.90;;;;;;4980642;28;19956;-73
2022/03/13 02:08:27;;;;;;;;;;;6.20;58.90;;;;;;4983745;28;19934;-73
2022/03/13 02:10:53;;;;;;;;;;;6.20;58.80;;;;;;4986441;28;19942;-73
2022/03/13 02:13:20;;;;;;;;;;;6.10;58.80;;;;;;4984867;28;20644;-73
2022/03/13 02:15:47;;;;;;;;;;;6.10;58.90;;;;;;4985109;28;20686;-73
2022/03/13 02:18:13;;;;;;;;;;;6.10;58.90;;;;;;4985360;28;19934;-72
2022/03/13 02:20:42;;;;;;;;;;;6.10;58.90;;;;;;4985582;28;20554;-73
2022/03/13 02:23:16;;;;;;;;;;;6.10;58.80;;;;;;4985361;28;19929;-73
2022/03/13 02:25:43;;;;;;;;;;;6.00;58.80;;;;;;4984699;28;19937;-73
2022/03/13 02:28:09;;;;;;;;;;;6.00;58.80;;;;;;4983138;28;20393;-73
2022/03/13 02:30:36;;;;;;;;;;;6.00;58.90;;;;;;4984853;28;19929;-73
2022/03/13 02:33:02;;;;;;;;;;;6.00;59.00;;;;;;4984659;28;19930;-73
2022/03/13 02:35:30;;;;;;;;;;;5.90;58.90;;;;;;4985168;28;20386;-73
2022/03/13 02:37:56;;;;;;;;;;;5.90;58.90;;;;;;4986220;28;20000;-73
2022/03/13 02:40:25;;;;;;;;;;;5.90;59.00;;;;;;4985211;28;19940;-74
2022/03/13 02:42:52;;;;;;;;;;;5.90;59.10;;;;;;4985845;28;19941;-73
2022/03/13 02:45:27;;;;;;;;;;;5.90;59.20;;;;;;4985316;28;19946;-73
2022/03/13 02:47:53;;;;;;;;;;;5.80;59.10;;;;;;4984624;28;20402;-73
2022/03/13 02:50:20;;;;;;;;;;;5.80;59.20;;;;;;4985576;28;20396;-73
2022/03/13 02:52:47;;;;;;;;;;;5.80;59.80;;;;;;4985729;28;20381;-73
2022/03/13 02:55:13;;;;;;;;;;;5.80;59.20;;;;;;4985014;28;19936;-73
2022/03/13 02:57:41;;;;;;;;;;;5.80;59.30;;;;;;4982415;28;19938;-73
2022/03/13 03:00:08;;;;;;;;;;;5.70;59.30;;;;;;4983891;28;20454;-73
2022/03/13 03:02:35;;;;;;;;;;;5.70;59.20;;;;;;4986258;28;19930;-72
2022/03/13 03:05:04;;;;;;;;;;;5.70;59.30;;;;;;4983877;28;20381;-73
2022/03/13 03:07:31;;;;;;;;;;;5.60;59.40;;;;;;4985811;28;19937;-73
2022/03/13 03:09:57;;;;;;;;;;;5.60;59.30;;;;;;4986032;28;19936;-72
2022/03/13 03:12:24;;;;;;;;;;;5.60;59.20;;;;;;4984347;28;19941;-73
2022/03/13 03:14:52;;;;;;;;;;;5.60;59.40;;;;;;4981668;28;19930;-73
2022/03/13 03:17:18;;;;;;;;;;;5.60;59.40;;;;;;4985003;28;19934;-74
2022/03/13 03:19:45;;;;;;;;;;;5.60;59.60;;;;;;4982699;28;19937;-73
2022/03/13 03:22:11;;;;;;;;;;;5.50;60.10;;;;;;4984160;28;19941;-73
2022/03/13 03:24:38;;;;;;;;;;;5.50;59.50;;;;;;4980931;28;20071;-72
2022/03/13 03:27:05;;;;;;;;;;;5.50;59.70;;;;;;4984189;28;19934;-73
2022/03/13 03:29:31;;;;;;;;;;;5.50;59.70;;;;;;4982963;28;19953;-72
2022/03/13 03:31:59;;;;;;;;;;;5.50;59.70;;;;;;4983674;28;19996;-73
2022/03/13 03:34:27;;;;;;;;;;;5.50;59.70;;;;;;4982717;28;19936;-73
2022/03/13 03:36:55;;;;;;;;;;;5.40;59.60;;;;;;4983715;28;20457;-72
2022/03/13 03:39:22;;;;;;;;;;;5.40;59.70;;;;;;4984957;28;20717;-73
2022/03/13 03:41:50;;;;;;;;;;;5.40;59.80;;;;;;4984326;28;19934;-73
2022/03/13 03:44:17;;;;;;;;;;;5.40;60.00;;;;;;4981671;28;20035;-73
2022/03/13 03:46:44;;;;;;;;;;;5.30;60.00;;;;;;4984353;28;20013;-73
2022/03/13 03:49:12;;;;;;;;;;;5.30;60.00;;;;;;4982374;28;19937;-73
2022/03/13 03:51:39;;;;;;;;;;;5.30;60.00;;;;;;4984866;28;19930;-73
2022/03/13 03:54:06;;;;;;;;;;;5.20;60.10;;;;;;4983484;28;20018;-73
2022/03/13 03:56:33;;;;;;;;;;;5.30;60.10;;;;;;4983687;28;20397;-73
2022/03/13 03:59:00;;;;;;;;;;;5.20;60.40;;;;;;4982545;28;19941;-73
2022/03/13 04:01:28;;;;;;;;;;;5.20;60.50;;;;;;4983055;28;20409;-73
2022/03/13 04:03:55;;;;;;;;;;;5.20;60.30;;;;;;4982175;28;19930;-73
2022/03/13 04:06:23;;;;;;;;;;;5.20;60.40;;;;;;4983855;28;20414;-73
2022/03/13 04:08:49;;;;;;;;;;;5.10;60.30;;;;;;4982984;28;19936;-73
2022/03/13 04:11:16;;;;;;;;;;;5.10;60.50;;;;;;4984121;28;19930;-73
2022/03/13 04:13:42;;;;;;;;;;;5.10;60.50;;;;;;4983218;28;19930;-73
2022/03/13 04:16:10;;;;;;;;;;;5.10;60.60;;;;;;4983440;28;19965;-73
2022/03/13 04:18:37;;;;;;;;;;;5.00;60.50;;;;;;4981549;28;19930;-73
2022/03/13 04:21:04;;;;;;;;;;;5.00;60.70;;;;;;4981005;28;19934;-73
2022/03/13 04:23:33;;;;;;;;;;;5.00;60.70;;;;;;4983642;28;19999;-73
2022/03/13 04:25:59;;;;;;;;;;;5.00;60.80;;;;;;4983179;28;19937;-73
2022/03/13 04:28:27;;;;;;;;;;;5.00;60.60;;;;;;4981571;28;20000;-73
2022/03/13 04:30:57;;;;;;;;;;;4.90;60.60;;;;;;4982387;28;19929;-73
2022/03/13 04:33:24;;;;;;;;;;;4.90;60.80;;;;;;4982389;28;20490;-73
2022/03/13 04:35:52;;;;;;;;;;;4.90;60.80;;;;;;4983284;28;19930;-73
2022/03/13 04:38:19;;;;;;;;;;;4.90;60.60;;;;;;4984895;28;19941;-73
2022/03/13 04:40:47;;;;;;;;;;;4.90;60.60;;;;;;4983545;28;19940;-73
2022/03/13 04:43:13;;;;;;;;;;;4.90;60.80;;;;;;4982728;28;19930;-73
2022/03/13 04:45:40;;;;;;;;;;;4.80;60.70;;;;;;4983777;28;19930;-73
2022/03/13 04:48:06;;;;;;;;;;;4.80;60.90;;;;;;4979304;28;19930;-73
2022/03/13 04:50:33;;;;;;;;;;;4.80;60.90;;;;;;4983271;28;20122;-73
2022/03/13 04:53:00;;;;;;;;;;;4.80;61.00;;;;;;4983877;28;19936;-73
2022/03/13 04:55:26;;;;;;;;;;;4.80;61.20;;;;;;4982358;28;20413;-74
2022/03/13 04:57:54;;;;;;;;;;;4.80;61.30;;;;;;4984062;28;20394;-73
2022/03/13 05:00:23;;;;;;;;;;;4.70;61.30;;;;;;4981378;28;20581;-73
2022/03/13 05:02:50;;;;;;;;;;;4.70;61.20;;;;;;4982223;28;19940;-73
2022/03/13 05:05:16;;;;;;;;;;;4.70;61.30;;;;;;4981680;28;19934;-73
2022/03/13 05:07:43;;;;;;;;;;;4.60;61.10;;;;;;4983137;28;19937;-73
2022/03/13 05:10:11;;;;;;;;;;;4.60;61.20;;;;;;4982134;28;19940;-73
2022/03/13 05:12:38;;;;;;;;;;;4.60;61.30;;;;;;4982047;28;20509;-73
2022/03/13 05:15:06;;;;;;;;;;;4.60;61.30;;;;;;4982377;28;20009;-72
2022/03/13 05:17:33;;;;;;;;;;;4.50;61.20;;;;;;4981420;28;19933;-72
2022/03/13 05:19:59;;;;;;;;;;;4.50;61.30;;;;;;4981684;28;19937;-73
2022/03/13 05:22:26;;;;;;;;;;;4.50;61.30;;;;;;4982809;28;20586;-73
2022/03/13 05:24:52;;;;;;;;;;;4.50;61.40;;;;;;4981891;28;20429;-73
2022/03/13 05:27:20;;;;;;;;;;;4.40;61.20;;;;;;4983016;28;20469;-73
2022/03/13 05:29:47;;;;;;;;;;;4.40;61.40;;;;;;4981394;28;20017;-73
2022/03/13 05:32:14;;;;;;;;;;;4.40;61.30;;;;;;4982505;28;20290;-73
2022/03/13 05:34:42;;;;;;;;;;;4.40;61.50;;;;;;4980171;28;19926;-73
2022/03/13 05:37:08;;;;;;;;;;;4.40;61.60;;;;;;4982554;28;19929;-73
2022/03/13 05:39:35;;;;;;;;;;;4.30;61.70;;;;;;4983165;28;20000;-73
2022/03/13 05:42:05;;;;;;;;;;;4.30;61.60;;;;;;4981814;28;20053;-73
2022/03/13 05:44:33;;;;;;;;;;;4.30;61.50;;;;;;4986839;28;19933;-74
2022/03/13 05:46:59;;;;;;;;;;;4.30;61.50;;;;;;4986119;28;19929;-73
2022/03/13 05:49:27;;;;;;;;;;;4.30;61.60;;;;;;4986219;28;19933;-73
2022/03/13 05:51:54;;;;;;;;;;;4.30;61.80;;;;;;4982532;28;19930;-73
2022/03/13 05:54:21;;;;;;;;;;;4.20;61.90;;;;;;4986456;28;19930;-72
2022/03/13 05:56:48;;;;;;;;;;;4.20;61.90;;;;;;4987988;28;19929;-73
2022/03/13 05:59:14;;;;;;;;;;;4.20;62.10;;;;;;4987554;28;19930;-73
2022/03/13 06:01:42;;;;;;;;;;;4.20;62.10;;;;;;4985805;28;19934;-73
2022/03/13 06:04:09;;;;;;;;;;;4.20;61.90;;;;;;4982413;28;19930;-73
2022/03/13 06:06:37;;;;;;;;;;;4.10;61.80;;;;;;4985926;28;20468;-73
2022/03/13 06:09:04;;;;;;;;;;;4.10;62.00;;;;;;4984726;28;20024;-72
2022/03/13 06:11:30;;;;;;;;;;;4.10;62.00;;;;;;4985287;28;19938;-73
2022/03/13 06:13:57;;;;;;;;;;;4.10;62.00;;;;;;4980253;28;20032;-72
2022/03/13 06:16:24;;;;;;;;;;;4.10;62.00;;;;;;4984141;28;19936;-73
2022/03/13 06:18:50;;;;;;;;;;;4.10;62.10;;;;;;4980737;28;19936;-72
2022/03/13 06:21:17;;;;;;;;;;;4.00;62.00;;;;;;4982331;28;19930;-73
2022/03/13 06:23:45;;;;;;;;;;;4.00;61.90;;;;;;4983414;28;19934;-73
2022/03/13 06:26:12;;;;;;;;;;;4.00;62.00;;;;;;4983622;28;20029;-73
2022/03/13 06:28:38;;;;;;;;;;;4.00;62.80;;;;;;4984443;28;20267;-73
2022/03/13 06:31:05;;;;;;;;;;;3.90;62.00;;;;;;4982243;28;19936;-72
2022/03/13 06:33:31;;;;;;;;;;;4.00;62.00;;;;;;4980650;28;19940;-72
2022/03/13 06:35:58;;;;;;;;;;;4.00;62.10;;;;;;4984754;28;19930;-73
2022/03/13 06:38:24;;;;;;;;;;;3.90;62.20;;;;;;4982354;28;20497;-72
2022/03/13 06:40:52;;;;;;;;;;;3.90;62.20;;;;;;4985091;28;19934;-73
2022/03/13 06:43:19;;;;;;;;;;;3.90;62.10;;;;;;4983625;28;20017;-72
2022/03/13 06:45:46;;;;;;;;;;;3.90;62.10;;;;;;4983881;28;19969;-73
2022/03/13 06:48:14;;;;;;;;;;;3.90;62.20;;;;;;4982273;28;20477;-71
2022/03/13 06:50:40;;;;;;;;;;;3.80;62.20;;;;;;4983943;28;19972;-72
2022/03/13 06:53:07;;;;;;;;;;;3.80;62.20;;;;;;4986195;28;20386;-73
2022/03/13 06:55:34;;;;;;;;;;;3.80;62.30;;;;;;4984563;28;19936;-72
2022/03/13 06:58:01;;;;;;;;;;;3.80;62.30;;;;;;4983329;28;19937;-72
2022/03/13 07:00:28;;;;;;;;;;;3.80;62.30;;;;;;4985125;28;19929;-72
2022/03/13 07:02:55;;;;;;;;;;;3.80;62.30;;;;;;4983794;28;20283;-72
2022/03/13 07:05:23;;;;;;;;;;;3.80;62.40;;;;;;4981861;28;20394;-72
2022/03/13 07:07:50;;;;;;;;;;;3.80;62.30;;;;;;4982932;28;20033;-72
2022/03/13 07:10:16;;;;;;;;;;;3.70;61.60;;;;;;4983399;28;20698;-73
2022/03/13 07:12:44;;;;;;;;;;;3.70;62.30;;;;;;4981423;28;20302;-73
2022/03/13 07:15:13;;;;;;;;;;;3.80;62.50;;;;;;4982935;28;20300;-73
2022/03/13 07:17:41;;;;;;;;;;;3.70;62.20;;;;;;4982528;28;19936;-72
2022/03/13 07:20:08;;;;;;;;;;;3.70;62.20;;;;;;4984606;28;20046;-73
2022/03/13 07:22:34;;;;;;;;;;;3.70;62.20;;;;;;4985421;28;19929;-73
2022/03/13 07:25:01;;;;;;;;;;;3.70;62.20;;;;;;4983394;28;19929;-73
2022/03/13 07:27:28;;;;;;;;;;;3.70;62.30;;;;;;4984541;28;20487;-73
2022/03/13 07:29:55;;;;;;;;;;;3.70;62.20;;;;;;4984032;28;19929;-72
2022/03/13 07:32:23;;;;;;;;;;;3.70;62.20;;;;;;4982461;28;19941;-73
2022/03/13 07:34:49;;;;;;;;;;;3.70;62.90;;;;;;4982578;28;19929;-73
2022/03/13 07:37:16;;;;;;;;;;;3.70;62.20;;;;;;4984476;28;19934;-73
2022/03/13 07:39:47;;;;;;;;;;;3.70;62.00;;;;;;4981961;28;20338;-73
2022/03/13 07:42:14;;;;;;;;;;;3.70;61.90;;;;;;4982688;28;20273;-73
2022/03/13 07:44:40;;;;;;;;;;;3.70;61.90;;;;;;4983563;28;20008;-73
2022/03/13 07:47:07;;;;;;;;;;;3.70;61.80;;;;;;4983737;28;19934;-72
2022/03/13 07:49:35;;;;;;;;;;;3.70;61.80;;;;;;4981886;28;19934;-73
2022/03/13 07:52:02;;;;;;;;;;;3.70;61.80;;;;;;4984451;28;19929;-73
2022/03/13 07:54:28;;;;;;;;;;;3.70;61.70;;;;;;4983675;28;19973;-72
2022/03/13 07:56:55;;;;;;;;;;;3.70;61.70;;;;;;4980397;28;19938;-73
2022/03/13 07:59:21;;;;;;;;;;;3.70;61.50;;;;;;4984094;28;19930;-73
2022/03/13 08:01:49;;;;;;;;;;;3.70;61.50;;;;;;4980845;28;19926;-73
2022/03/13 08:04:16;;;;;;;;;;;3.70;61.60;;;;;;4982102;28;19992;-73
2022/03/13 08:06:44;;;;;;;;;;;3.80;61.40;;;;;;4982718;28;20358;-72
2022/03/13 08:09:11;;;;;;;;;;;3.70;61.10;;;;;;4982615;28;20021;-73
2022/03/13 08:11:38;;;;;;;;;;;3.80;61.10;;;;;;4982726;28;19937;-73
2022/03/13 08:14:07;;;;;;;;;;;3.80;61.10;;;;;;4983031;28;20380;-73
2022/03/13 08:16:34;;;;;;;;;;;3.80;60.90;;;;;;4981808;28;19936;-73
2022/03/13 08:19:00;;;;;;;;;;;3.80;60.80;;;;;;4979924;28;19933;-73
2022/03/13 08:21:27;;;;;;;;;;;3.80;60.90;;;;;;4983385;28;20378;-73
2022/03/13 08:23:55;;;;;;;;;;;3.80;60.60;;;;;;4982313;28;19930;-74
2022/03/13 08:26:22;;;;;;;;;;;3.90;60.60;;;;;;4982437;28;20040;-73
2022/03/13 08:28:49;;;;;;;;;;;3.90;60.40;;;;;;4982948;28;20012;-73
2022/03/13 08:31:15;;;;;;;;;;;3.90;60.20;;;;;;4981737;28;19934;-73
2022/03/13 08:33:44;;;;;;;;;;;3.90;60.30;;;;;;4982348;28;20394;-73
2022/03/13 08:36:10;;;;;;;;;;;4.00;60.20;;;;;;4981321;28;20500;-73
2022/03/13 08:38:37;;;;;;;;;;;4.00;60.00;;;;;;4982998;28;20063;-73
2022/03/13 08:41:05;;;;;;;;;;;4.10;60.80;;;;;;4982118;28;19964;-72
2022/03/13 08:43:32;;;;;;;;;;;4.20;59.50;;;;;;4982226;28;20365;-74
2022/03/13 08:45:59;;;;;;;;;;;4.20;59.80;;;;;;4980584;28;19969;-73
2022/03/13 08:48:26;;;;;;;;;;;4.20;59.70;;;;;;4980001;28;20020;-73
2022/03/13 08:50:52;;;;;;;;;;;4.30;59.70;;;;;;4982974;28;20387;-72
2022/03/13 08:53:19;;;;;;;;;;;4.30;59.60;;;;;;4979290;28;19941;-74
2022/03/13 08:55:45;;;;;;;;;;;4.40;59.60;;;;;;4981168;28;19930;-74
2022/03/13 08:58:13;;;;;;;;;;;4.40;59.50;;;;;;4979649;28;20417;-73
2022/03/13 09:00:43;;;;;;;;;;;4.40;59.50;;;;;;4977914;28;20709;-73
2022/03/13 09:03:10;;;;;;;;;;;4.50;59.50;;;;;;4975826;28;19968;-73
2022/03/13 09:05:36;;;;;;;;;;;4.60;59.50;;;;;;4980513;28;19952;-73
2022/03/13 09:08:03;;;;;;;;;;;4.60;59.50;;;;;;4980227;28;19933;-74
2022/03/13 09:10:30;;;;;;;;;;;4.70;59.50;;;;;;4979969;28;20453;-68
2022/03/13 09:12:57;;;;;;;;;;;4.70;59.40;;;;;;4979179;28;20390;-69
2022/03/13 09:15:25;;;;;;;;;;;4.80;59.30;;;;;;4980796;28;19929;-69
2022/03/13 09:17:53;;;;;;;;;;;4.80;59.20;;;;;;4980754;28;19941;-68
2022/03/13 09:20:20;;;;;;;;;;;4.90;59.10;;;;;;4986009;28;19930;-68
2022/03/13 09:22:47;;;;;;;;;;;4.90;59.00;;;;;;4987836;28;19925;-68
2022/03/13 09:25:13;;;;;;;;;;;5.00;59.10;;;;;;4985904;28;20394;-69
2022/03/13 09:27:40;;;;;;;;;;;5.00;59.00;;;;;;4990268;28;20370;-69
2022/03/13 09:30:08;;;;;;;;;;;5.10;59.00;;;;;;4991688;28;19941;-68
2022/03/13 09:32:36;;;;;;;;;;;5.10;58.90;;;;;;4988401;28;19961;-68
2022/03/13 09:35:03;;;;;;;;;;;5.20;58.90;;;;;;4989562;28;19933;-68
2022/03/13 09:37:29;;;;;;;;;;;5.30;58.90;;;;;;4988359;28;19941;-68
2022/03/13 09:39:56;;;;;;;;;;;5.40;58.80;;;;;;4990496;28;19936;-68
2022/03/13 09:42:22;;;;;;;;;;;5.40;58.90;;;;;;4987584;28;19930;-69
2022/03/13 09:44:49;;;;;;;;;;;5.50;58.90;;;;;;4987876;28;19929;-69
2022/03/13 09:47:15;;;;;;;;;;;5.50;58.70;;;;;;4989545;28;19936;-68
2022/03/13 09:49:44;;;;;;;;;;;5.60;58.80;;;;;;4985359;28;19940;-68
2022/03/13 09:52:10;;;;;;;;;;;5.70;58.90;;;;;;4989637;28;19930;-68
2022/03/13 09:54:37;;;;;;;;;;;5.80;58.90;;;;;;4988874;28;19952;-69
2022/03/13 09:57:04;;;;;;;;;;;5.80;58.80;;;;;;4989751;28;19934;-69
2022/03/13 09:59:30;;;;;;;;;;;5.90;58.80;;;;;;4985292;28;20434;-68
2022/03/13 10:01:57;;;;;;;;;;;6.00;58.80;;;;;;4987200;28;19937;-68
2022/03/13 10:04:24;;;;;;;;;;;6.10;58.70;;;;;;4987131;28;19940;-69
2022/03/13 10:07:15;;;;;;;;;;;6.10;58.50;;;;;;4988392;28;19929;-68
2022/03/13 10:09:44;;;;;;;;;;;6.20;58.50;;;;;;4982173;28;20365;-68
2022/03/13 10:12:12;;;;;;;;;;;7.40;58.90;;;;;;4987207;28;20114;-68
2022/03/13 10:14:39;;;;;;;;;;;6.40;58.50;;;;;;4987902;28;20040;-68
2022/03/13 10:17:06;;;;;;;;;;;6.50;58.40;;;;;;4987609;28;20301;-68
2022/03/13 10:19:33;;;;;;;;;;;6.50;58.20;;;;;;4985042;28;19937;-69
2022/03/13 10:22:00;;;;;;;;;;;6.60;58.10;;;;;;4990502;28;19941;-68
2022/03/13 10:24:27;;;;;;;;;;;6.70;58.00;;;;;;4989199;28;19929;-69
2022/03/13 10:27:08;;;;;;;;;;;7.40;58.20;;;;;;4985958;28;19933;-68
2022/03/13 10:29:34;;;;;;;;;;;6.80;57.80;;;;;;4985215;28;19930;-69
2022/03/13 10:32:01;;;;;;;;;;;6.90;57.70;;;;;;4983717;28;21195;-68
2022/03/13 10:34:28;;;;;;;;;;;7.00;57.70;;;;;;4983926;28;20644;-69
2022/03/13 10:36:54;;;;;;;;;;;7.00;57.60;;;;;;4983400;28;20417;-69
2022/03/13 10:39:21;;;;;;;;;;;7.10;57.50;;;;;;4985614;28;19937;-69
2022/03/13 10:41:53;;;;;;;;;;;7.20;57.50;;;;;;4984834;28;19934;-69
2022/03/13 10:44:22;;;;;;;;;;;7.30;57.30;;;;;;4981123;28;19930;-68
2022/03/13 10:46:53;;;;;;;;;;;7.40;57.20;;;;;;4983692;28;19934;-68
2022/03/13 10:49:31;;;;;;;;;;;7.40;57.20;;;;;;4982406;28;20044;-69
2022/03/13 10:51:59;;;;;;;;;;;7.50;57.00;;;;;;4984343;28;19930;-69
2022/03/13 10:54:28;;;;;;;;;;;7.70;56.90;;;;;;4985067;28;19937;-69
2022/03/13 10:57:05;;;;;;;;;;;7.70;56.80;;;;;;4985150;28;20004;-69
2022/03/13 10:59:33;;;;;;;;;;;7.80;56.60;;;;;;4980712;28;19933;-69
2022/03/13 11:02:11;;;;;;;;;;;7.90;56.50;;;;;;4985330;28;19929;-68
2022/03/13 11:04:45;;;;;;;;;;;8.00;56.50;;;;;;4984064;28;20431;-68
2022/03/13 11:07:12;;;;;;;;;;;8.00;56.30;;;;;;4983162;28;19930;-68
2022/03/13 11:09:38;;;;;;;;;;;8.10;56.20;;;;;;4984147;28;20397;-69
2022/03/13 11:12:06;;;;;;;;;;;8.20;56.10;;;;;;4985696;28;20383;-69
2022/03/13 11:14:35;;;;;;;;;;;8.20;56.00;;;;;;4979222;28;19937;-68
2022/03/13 11:17:02;;;;;;;;;;;8.30;55.90;;;;;;4985278;28;19930;-68
2022/03/13 11:19:29;;;;;;;;;;;8.40;55.90;;;;;;4983135;28;19936;-70
2022/03/13 11:21:56;;;;;;;;;;;8.50;55.80;;;;;;4986148;28;19941;-69
2022/03/13 11:24:23;;;;;;;;;;;8.50;55.70;;;;;;4985754;28;20313;-69
2022/03/13 11:26:51;;;;;;;;;;;8.60;55.60;;;;;;4981969;28;19933;-69
2022/03/13 11:29:39;;;;;;;;;;;8.70;55.50;;;;;;4981254;28;20015;-70
2022/03/13 11:32:28;;;;;;;;;;;8.70;55.40;;;;;;4982486;28;19929;-69
2022/03/13 11:35:09;;;;;;;;;;;8.80;55.00;;;;;;4983606;28;19930;-68
2022/03/13 11:37:36;;;;;;;;;;;8.90;55.10;;;;;;4983157;28;19929;-69
2022/03/13 11:40:04;;;;;;;;;;;9.00;55.10;;;;;;4983487;28;19937;-69
2022/03/13 11:42:44;;;;;;;;;;;9.10;55.00;;;;;;4984939;28;20298;-69
2022/03/13 11:45:30;;;;;;;;;;;9.20;54.80;;;;;;4981638;28;19930;-68
2022/03/13 11:47:58;;;;;;;;;;;9.30;54.80;;;;;;4980857;28;19937;-69
2022/03/13 11:50:45;;;;;;;;;;;9.40;54.70;;;;;;4984010;28;19934;-68
2022/03/13 11:53:15;;;;;;;;;;;9.40;54.50;;;;;;4984064;28;19929;-68
2022/03/13 11:55:56;;;;;;;;;;;9.50;54.40;;;;;;4985304;28;19929;-69
2022/03/13 11:58:38;;;;;;;;;;;9.60;54.40;;;;;;4984275;28;19930;-68
2022/03/13 12:01:08;;;;;;;;;;;10.50;54.70;;;;;;4981261;28;19929;-69
2022/03/13 12:03:36;;;;;;;;;;;9.70;54.20;;;;;;4983778;28;20604;-69
2022/03/13 12:06:03;;;;;;;;;;;9.90;54.10;;;;;;4982917;28;19940;-69
2022/03/13 12:08:44;;;;;;;;;;;9.90;54.60;;;;;;4984006;28;19929;-69
2022/03/13 12:11:26;;;;;;;;;;;10.00;53.70;;;;;;4969942;28;19941;-68
2022/03/13 12:13:53;;;;;;;;;;;10.10;53.70;;;;;;4983251;28;20386;-70
2022/03/13 12:16:20;;;;;;;;;;;10.20;53.70;;;;;;4984185;28;19929;-69
2022/03/13 12:18:57;;;;;;;;;;;10.30;53.50;;;;;;4981883;28;19937;-69
2022/03/13 12:21:24;;;;;;;;;;;10.30;53.40;;;;;;4984581;28;20012;-69
2022/03/13 12:23:52;;;;;;;;;;;10.40;53.20;;;;;;4982458;28;19945;-70
2022/03/13 12:26:19;;;;;;;;;;;10.50;53.10;;;;;;4983065;28;20390;-69
2022/03/13 12:28:46;;;;;;;;;;;10.50;53.00;;;;;;4981171;28;20040;-69
2022/03/13 12:31:13;;;;;;;;;;;10.60;52.90;;;;;;4983827;28;19937;-68
2022/03/13 12:33:44;;;;;;;;;;;10.60;52.80;;;;;;4979558;28;19941;-69
2022/03/13 12:36:12;;;;;;;;;;;10.70;52.80;;;;;;4983520;28;19930;-69
2022/03/13 12:38:43;;;;;;;;;;;10.80;52.70;;;;;;4983287;28;20060;-69
2022/03/13 12:41:10;;;;;;;;;;;10.90;52.60;;;;;;4983856;28;20028;-69
2022/03/13 12:43:46;;;;;;;;;;;11.00;52.50;;;;;;4982991;28;19984;-69
2022/03/13 12:46:13;;;;;;;;;;;11.30;52.60;;;;;;4981464;28;19933;-68
2022/03/13 12:48:49;;;;;;;;;;;11.10;52.40;;;;;;4980604;28;20472;-69
2022/03/13 12:54:10;;;;;;;;;;;11.20;51.70;;;;;;5062629;28;20426;-70
2022/03/13 12:56:43;;;;;;;;;;;11.20;52.10;;;;;;5049485;28;20309;-70
2022/03/13 12:59:09;;;;;;;;;;;11.30;52.10;;;;;;5046472;28;19928;-70
2022/03/13 13:01:36;;;;;;;;;;;11.40;52.20;;;;;;5029885;28;19938;-71
2022/03/13 13:04:03;;;;;;;;;;;11.40;52.10;;;;;;5021917;28;20305;-70
2022/03/13 13:06:31;;;;;;;;;;;11.40;52.00;;;;;;5022462;28;19934;-70
2022/03/13 13:08:57;;;;;;;;;;;11.50;52.00;;;;;;5019746;28;20265;-70
2022/03/13 13:11:35;;;;;;;;;;;11.50;51.90;;;;;;5024072;28;19933;-70
2022/03/13 13:14:02;;;;;;;;;;;11.60;51.20;;;;;;5019155;28;19937;-70
2022/03/13 13:16:29;;;;;;;;;;;11.70;51.70;;;;;;5021041;28;20310;-70
2022/03/13 13:18:56;;;;;;;;;;;11.70;51.40;;;;;;5019989;28;19933;-70
2022/03/13 13:21:32;;;;;;;;;;;11.70;51.50;;;;;;5021942;28;19940;-70
2022/03/13 13:23:59;;;;;;;;;;;11.80;51.50;;;;;;5021917;28;19929;-70
2022/03/13 13:26:42;;;;;;;;;;;11.80;51.40;;;;;;5024528;28;20428;-71
2022/03/13 13:29:08;;;;;;;;;;;11.80;51.40;;;;;;5022311;28;19936;-70
2022/03/13 13:31:35;;;;;;;;;;;11.80;51.40;;;;;;5020956;28;19937;-71
2022/03/13 13:34:13;;;;;;;;;;;11.90;51.40;;;;;;5022406;28;19929;-70
2022/03/13 13:36:40;;;;;;;;;;;11.90;51.20;;;;;;5022977;28;19929;-70
2022/03/13 13:39:07;;;;;;;;;;;11.90;51.30;;;;;;5018554;28;19929;-72
2022/03/13 13:41:34;;;;;;;;;;;11.90;51.10;;;;;;5021304;28;19934;-71
2022/03/13 13:44:03;;;;;;;;;;;11.90;50.80;;;;;;5019615;28;19976;-70
2022/03/13 13:46:30;;;;;;;;;;;12.00;50.90;;;;;;5023104;28;19929;-70
2022/03/13 13:48:57;;;;;;;;;;;12.10;50.90;;;;;;5016881;28;19933;-71
2022/03/13 13:51:25;;;;;;;;;;;12.20;50.90;;;;;;5023944;28;19925;-70
2022/03/13 13:53:56;;;;;;;;;;;12.20;50.50;;;;;;5032518;28;19928;-70
2022/03/13 13:56:23;;;;;;;;;;;12.30;50.20;;;;;;5039181;28;20031;-70
2022/03/13 13:58:50;;;;;;;;;;;12.40;50.40;;;;;;5039555;28;19933;-69
2022/03/13 14:01:22;;;;;;;;;;;12.40;50.30;;;;;;5039555;28;19936;-70
2022/03/13 14:03:49;;;;;;;;;;;12.60;49.60;;;;;;5038528;28;19925;-70
2022/03/13 14:06:19;;;;;;;;;;;12.60;49.80;;;;;;5029023;28;19945;-70
2022/03/13 14:08:46;;;;;;;;;;;12.60;50.40;;;;;;5021580;28;20050;-70
2022/03/13 14:11:13;;;;;;;;;;;12.70;49.70;;;;;;5028446;28;20448;-68
2022/03/13 14:13:39;;;;;;;;;;;12.90;49.80;;;;;;5025635;28;19925;-68
2022/03/13 14:16:06;;;;;;;;;;;12.90;49.60;;;;;;5025640;28;19929;-68
2022/03/13 14:18:34;;;;;;;;;;;13.00;49.50;;;;;;5021385;28;20311;-68
2022/03/13 14:21:02;;;;;;;;;;;13.10;49.40;;;;;;5026481;28;20619;-68
2022/03/13 14:23:29;;;;;;;;;;;13.10;48.90;;;;;;5025846;28;19952;-68
2022/03/13 14:25:55;;;;;;;;;;;13.20;48.90;;;;;;5025891;28;20337;-68
2022/03/13 14:28:24;;;;;;;;;;;13.30;48.60;;;;;;5024314;28;19936;-68
2022/03/13 14:30:52;;;;;;;;;;;13.30;49.00;;;;;;5025532;28;19932;-68
2022/03/13 14:33:18;;;;;;;;;;;13.40;48.70;;;;;;5019998;28;19992;-68
2022/03/13 14:35:46;;;;;;;;;;;13.50;48.60;;;;;;5025893;28;19933;-69
2022/03/13 14:38:13;;;;;;;;;;;13.50;48.60;;;;;;5024714;28;19933;-68